RPC2674 RPLL-ZZZZ
Flight info
| Callsign | RPC2674 |
|---|---|
| Flight time | N/A |
| Altitude | 3500 |
| Route | VFR |
| Aircraft | P28A/L-SD/C |
Departure
| Time | 2026-04-30 14:00 |
|---|---|
| Airport | Ninoy Aquino International Airport (RPLL) |
Arrival
| Time | N/A |
|---|---|
| Airport | ZZZZ |
| Time | Latitude | Longitude | Altitude | Speed | Heading |
|---|---|---|---|---|---|
| 2026-04-30 13:27 | 14.52728 | 121.00179 | 63 ft | 0 kts | 176° |
| 2026-04-30 13:34 | 14.52727 | 121.00179 | 63 ft | 1 kts | 176° |
| 2026-04-30 13:35 | 14.52720 | 121.00206 | 63 ft | 8 kts | 97° |
| 2026-04-30 13:35 | 14.52612 | 121.00220 | 63 ft | 3 kts | 221° |
| 2026-04-30 13:36 | 14.52611 | 121.00214 | 63 ft | 0 kts | 284° |
| 2026-04-30 13:46 | 14.52613 | 121.00206 | 60 ft | 5 kts | 284° |
| 2026-04-30 13:46 | 14.52579 | 121.00185 | 63 ft | 12 kts | 136° |
| 2026-04-30 13:46 | 14.52505 | 121.00260 | 59 ft | 16 kts | 136° |
| 2026-04-30 13:46 | 14.52420 | 121.00344 | 63 ft | 17 kts | 136° |
| 2026-04-30 13:47 | 14.52352 | 121.00412 | 57 ft | 0 kts | 134° |
| 2026-04-30 13:50 | 14.52305 | 121.00461 | 58 ft | 32 kts | 135° |
| 2026-04-30 13:50 | 14.52045 | 121.00732 | 62 ft | 55 kts | 135° |
| 2026-04-30 13:51 | 14.51887 | 121.00894 | 62 ft | 16 kts | 135° |
| 2026-04-30 13:51 | 14.51852 | 121.00980 | 58 ft | 11 kts | 53° |
| 2026-04-30 13:51 | 14.51931 | 121.00996 | 63 ft | 15 kts | 315° |
| 2026-04-30 13:51 | 14.52020 | 121.00903 | 61 ft | 21 kts | 315° |
| 2026-04-30 13:52 | 14.52121 | 121.00801 | 61 ft | 16 kts | 315° |
| 2026-04-30 13:52 | 14.52176 | 121.00738 | 58 ft | 6 kts | 268° |
| 2026-04-30 13:52 | 14.52173 | 121.00733 | 59 ft | 0 kts | 221° |
| 2026-04-30 13:52 | 14.52170 | 121.00731 | 59 ft | 3 kts | 220° |
| 2026-04-30 13:53 | 14.52128 | 121.00690 | 61 ft | 13 kts | 224° |
| 2026-04-30 13:53 | 14.52100 | 121.00672 | 61 ft | 4 kts | 146° |
| 2026-04-30 13:53 | 14.52098 | 121.00675 | 61 ft | 0 kts | 133° |
| 2026-04-30 13:59 | 14.52065 | 121.00710 | 60 ft | 28 kts | 134° |
| 2026-04-30 13:59 | 14.51810 | 121.00973 | 71 ft | 71 kts | 134° |
| 2026-04-30 13:59 | 14.51426 | 121.01369 | 174 ft | 84 kts | 134° |
| 2026-04-30 13:59 | 14.50989 | 121.01821 | 309 ft | 93 kts | 135° |
| 2026-04-30 14:00 | 14.50524 | 121.02296 | 465 ft | 94 kts | 136° |
| 2026-04-30 14:00 | 14.49571 | 121.03248 | 767 ft | 97 kts | 135° |
| 2026-04-30 14:00 | 14.49082 | 121.03730 | 884 ft | 98 kts | 135° |
| 2026-04-30 14:01 | 14.48594 | 121.04227 | 975 ft | 99 kts | 133° |
| 2026-04-30 14:01 | 14.48029 | 121.04630 | 1025 ft | 101 kts | 156° |
| 2026-04-30 14:01 | 14.47330 | 121.04731 | 1077 ft | 102 kts | 172° |
| 2026-04-30 14:01 | 14.46610 | 121.04806 | 1097 ft | 105 kts | 172° |
| 2026-04-30 14:02 | 14.45876 | 121.04896 | 1101 ft | 106 kts | 171° |
| 2026-04-30 14:02 | 14.45148 | 121.04982 | 1114 ft | 107 kts | 171° |
| 2026-04-30 14:02 | 14.44398 | 121.05049 | 1121 ft | 110 kts | 174° |
| 2026-04-30 14:02 | 14.43636 | 121.04953 | 1112 ft | 112 kts | 191° |
| 2026-04-30 14:03 | 14.42863 | 121.04779 | 1130 ft | 113 kts | 189° |
| 2026-04-30 14:03 | 14.42107 | 121.04634 | 1150 ft | 110 kts | 186° |
| 2026-04-30 14:03 | 14.41354 | 121.04505 | 1198 ft | 111 kts | 185° |
| 2026-04-30 14:03 | 14.40596 | 121.04364 | 1161 ft | 110 kts | 185° |
| 2026-04-30 14:04 | 14.39866 | 121.04220 | 1199 ft | 106 kts | 187° |
| 2026-04-30 14:04 | 14.39175 | 121.03872 | 1254 ft | 114 kts | 206° |
| 2026-04-30 14:04 | 14.38506 | 121.03439 | 1313 ft | 113 kts | 206° |
| 2026-04-30 14:04 | 14.37834 | 121.03002 | 1412 ft | 115 kts | 206° |
| 2026-04-30 14:05 | 14.37149 | 121.02551 | 1472 ft | 119 kts | 206° |
| 2026-04-30 14:05 | 14.36435 | 121.02107 | 1479 ft | 121 kts | 202° |
| 2026-04-30 14:05 | 14.35708 | 121.01698 | 1459 ft | 118 kts | 201° |
| 2026-04-30 14:05 | 14.35005 | 121.01298 | 1458 ft | 112 kts | 199° |
| 2026-04-30 14:06 | 14.34338 | 121.00895 | 1470 ft | 109 kts | 202° |
| 2026-04-30 14:06 | 14.32998 | 121.00124 | 1502 ft | 113 kts | 199° |
| 2026-04-30 14:07 | 14.31601 | 120.99362 | 1552 ft | 113 kts | 197° |
| 2026-04-30 14:07 | 14.30914 | 120.98981 | 1554 ft | 114 kts | 200° |
| 2026-04-30 14:07 | 14.30234 | 120.98529 | 1620 ft | 117 kts | 210° |
| 2026-04-30 14:08 | 14.28974 | 120.97461 | 1824 ft | 115 kts | 214° |
| 2026-04-30 14:08 | 14.28363 | 120.96941 | 1901 ft | 113 kts | 213° |
| 2026-04-30 14:08 | 14.27158 | 120.95920 | 2080 ft | 112 kts | 214° |
| 2026-04-30 14:09 | 14.26554 | 120.95390 | 2132 ft | 117 kts | 212° |
| 2026-04-30 14:09 | 14.25931 | 120.94851 | 2234 ft | 117 kts | 215° |
| 2026-04-30 14:09 | 14.24768 | 120.93677 | 2357 ft | 117 kts | 218° |
| 2026-04-30 14:10 | 14.24172 | 120.93115 | 2434 ft | 116 kts | 214° |
| 2026-04-30 14:10 | 14.23553 | 120.92578 | 2488 ft | 117 kts | 214° |
| 2026-04-30 14:10 | 14.22927 | 120.92018 | 2578 ft | 118 kts | 215° |
| 2026-04-30 14:10 | 14.22294 | 120.91476 | 2639 ft | 120 kts | 213° |
| 2026-04-30 14:11 | 14.21641 | 120.90932 | 2691 ft | 121 kts | 212° |
| 2026-04-30 14:11 | 14.20998 | 120.90388 | 2717 ft | 118 kts | 213° |
| 2026-04-30 14:11 | 14.20369 | 120.89845 | 2743 ft | 118 kts | 213° |
| 2026-04-30 14:11 | 14.19734 | 120.89295 | 2714 ft | 120 kts | 213° |
| 2026-04-30 14:12 | 14.19079 | 120.88749 | 2682 ft | 122 kts | 213° |
| 2026-04-30 14:12 | 14.18413 | 120.88205 | 2676 ft | 122 kts | 212° |
| 2026-04-30 14:12 | 14.17728 | 120.87703 | 2661 ft | 119 kts | 207° |
| 2026-04-30 14:12 | 14.17280 | 120.87381 | 2653 ft | 119 kts | 208° |
| 2026-04-30 14:13 | 14.16388 | 120.86718 | 2643 ft | 118 kts | 211° |
| 2026-04-30 14:13 | 14.15756 | 120.86176 | 2635 ft | 119 kts | 218° |
| 2026-04-30 14:13 | 14.15202 | 120.85547 | 2671 ft | 117 kts | 225° |
| 2026-04-30 14:13 | 14.14661 | 120.84911 | 2641 ft | 121 kts | 223° |
| 2026-04-30 14:14 | 14.14110 | 120.84283 | 2681 ft | 117 kts | 222° |
| 2026-04-30 14:14 | 14.13544 | 120.83667 | 2669 ft | 118 kts | 221° |
| 2026-04-30 14:14 | 14.12993 | 120.83072 | 2694 ft | 113 kts | 220° |
| 2026-04-30 14:14 | 14.12432 | 120.82496 | 2669 ft | 115 kts | 219° |
| 2026-04-30 14:15 | 14.11867 | 120.81921 | 2645 ft | 114 kts | 218° |
| 2026-04-30 14:15 | 14.11286 | 120.81365 | 2588 ft | 114 kts | 218° |
| 2026-04-30 14:15 | 14.10727 | 120.80799 | 2571 ft | 112 kts | 220° |
| 2026-04-30 14:15 | 14.10175 | 120.80236 | 2538 ft | 111 kts | 219° |
| 2026-04-30 14:16 | 14.09624 | 120.79675 | 2514 ft | 112 kts | 218° |
| 2026-04-30 14:16 | 14.09057 | 120.79126 | 2490 ft | 112 kts | 217° |
| 2026-04-30 14:16 | 14.08449 | 120.78618 | 2437 ft | 112 kts | 212° |
| 2026-04-30 14:16 | 14.07840 | 120.78125 | 2422 ft | 111 kts | 213° |
| 2026-04-30 14:17 | 14.07220 | 120.77655 | 2411 ft | 111 kts | 207° |
| 2026-04-30 14:17 | 14.06569 | 120.77246 | 2422 ft | 109 kts | 205° |
| 2026-04-30 14:17 | 14.05928 | 120.76797 | 2292 ft | 114 kts | 213° |
| 2026-04-30 14:17 | 14.05370 | 120.76210 | 2178 ft | 115 kts | 223° |
| 2026-04-30 14:18 | 14.05021 | 120.75809 | 2096 ft | 113 kts | 224° |
| 2026-04-30 14:18 | 14.04389 | 120.74948 | 1920 ft | 112 kts | 231° |
| 2026-04-30 14:18 | 14.03593 | 120.73562 | 1589 ft | 112 kts | 232° |
| 2026-04-30 14:19 | 14.02863 | 120.72472 | 1282 ft | 109 kts | 231° |
| 2026-04-30 14:19 | 14.02317 | 120.71641 | 1114 ft | 104 kts | 233° |
| 2026-04-30 14:19 | 14.01930 | 120.71036 | 921 ft | 99 kts | 231° |
| 2026-04-30 14:20 | 14.01566 | 120.70781 | 772 ft | 92 kts | 193° |
| 2026-04-30 14:20 | 14.00882 | 120.71076 | 648 ft | 82 kts | 122° |
| 2026-04-30 14:20 | 14.00673 | 120.71992 | 502 ft | 78 kts | 82° |
| 2026-04-30 14:21 | 14.00913 | 120.72469 | 420 ft | 72 kts | 62° |
| 2026-04-30 14:21 | 14.01152 | 120.72924 | 356 ft | 72 kts | 62° |
| 2026-04-30 14:21 | 14.01569 | 120.73689 | 235 ft | 41 kts | 62° |
| 2026-04-30 14:22 | 14.01606 | 120.73774 | 232 ft | 6 kts | 219° |
| 2026-04-30 14:22 | 14.01538 | 120.73634 | 236 ft | 18 kts | 242° |
| 2026-04-30 14:22 | 14.01476 | 120.73510 | 235 ft | 19 kts | 241° |
| 2026-04-30 14:23 | 14.01533 | 120.73454 | 236 ft | 0 kts | 81° |